Nearby METAR Reports

 

KSJC - San Jose, California, USA
Distance from station: NE 9mi, 14km
Updated: Mon, 24-Jun-2019 7:53pm PDT
Mostly cloudy
Mostly cloudy
 Wind from NW
Wind: NW 9 mph , 15 km/h
Temperature: 72°F , 22°C
Dew Point: 54°F , 12°C
Humidity: 53%
Barometer: 29.83 inHg , 1010.2 hPa
Clouds: Mostly cloudy
Visibility: 10 miles , 16 km
Cloud details: Few Clouds 5000 ft
Partly cloudy 10000 ft
Mostly cloudy 16000 ft
2019/06/25 02:53 KSJC 250253Z 32008KT 10SM FEW050 SCT100 BKN160 22/12 A2983 RMK AO2 SLP099 T02220122 53003
KNUQ - Moffett Nas/Mtn, California, USA
Distance from station: N 9mi, 14km
Updated: Mon, 24-Jun-2019 7:56pm PDT
Clear
Clear
 Wind from N
Wind: N 10 mph , 17 km/h
Temperature: 70°F , 21°C
Dew Point: 57°F , 14°C
Humidity: 64%
Barometer: 29.83 inHg , 1010.2 hPa
Clouds: Clear
Visibility: 10 miles , 16 km
2019/06/25 02:56 KNUQ 250256Z 36009KT 10SM CLR 21/14 A2983 RMK AO2 SLP105 T02110139 53002
 
KPAO - Palo Alto, California, USA
Distance from station: NNW 14mi, 23km
Updated: Mon, 24-Jun-2019 7:47pm PDT
Mostly cloudy
Mostly cloudy
 Wind from N
Wind: N 15 mph , 24 km/h
Temperature: 66°F , 19°C
Dew Point: 57°F , 14°C
Humidity: 73%
Barometer: 29.83 inHg , 1010.2 hPa
Clouds: Mostly cloudy
Visibility: 10 miles , 16 km
Cloud details: Mostly cloudy 20000 ft
2019/06/25 02:47 KPAO 250247Z 36013KT 10SM BKN200 19/14 A2983
KRHV - San Jose/Reid, California, USA
Distance from station: ENE 12mi, 19km
Updated: Mon, 24-Jun-2019 7:50pm PDT
Mostly cloudy
Mostly cloudy
 Wind from NNW
Wind: NNW 8 mph , 13 km/h
Temperature: 77°F , 25°C
Dew Point: 48°F , 9°C
Humidity: 36%
Barometer: 29.83 inHg , 1010.2 hPa
Clouds: Mostly cloudy
Visibility: 10 miles , 16 km
Cloud details: Mostly cloudy 18000 ft
2019/06/25 02:50 KRHV 250250Z 34007KT 10SM BKN180 25/09 A2983
 
KOAK - Oakland, California, USA
Distance from station: NNW 31mi, 50km
Updated: Mon, 24-Jun-2019 7:53pm PDT
Mostly cloudy
Mostly cloudy
 Wind from WNW
Wind: WNW 13 mph , 20 km/h
Temperature: 63°F , 17°C
Dew Point: 54°F , 12°C
Humidity: 73%
Barometer: 29.83 inHg , 1010.2 hPa
Clouds: Mostly cloudy
Visibility: 10 miles , 16 km
Cloud details: Few Clouds 12000 ft
Partly cloudy 18000 ft
Mostly cloudy 25000 ft
2019/06/25 02:53 KOAK 250253Z 30011KT 10SM FEW120 SCT180 BKN250 17/12 A2983 RMK AO2 SLP102 T01670117 56004
KSQL - San Carlos Airpo, California, USA
Distance from station: NW 21mi, 34km
Updated: Mon, 24-Jun-2019 7:47pm PDT
Mostly cloudy
Mostly cloudy
 Wind from NW
Wind: NW 7 mph , 11 km/h
Temperature: 68°F , 20°C
Dew Point: 50°F , 10°C
Humidity: 53%
Barometer: 29.84 inHg , 1010.5 hPa
Clouds: Mostly cloudy
Visibility: 10 miles , 16 km
Cloud details: Mostly cloudy 20000 ft
2019/06/25 02:47 KSQL 250247Z 32006KT 10SM BKN200 20/10 A2984
 
KSFO - San Francisco, California, USA
Distance from station: NW 30mi, 49km
Updated: Mon, 24-Jun-2019 7:56pm PDT
Mostly cloudy
Mostly cloudy
 Wind from WNW
Wind: WNW 16 mph , 26 km/h
Temperature: 61°F , 16°C
Dew Point: 52°F , 11°C
Humidity: 72%
Barometer: 29.83 inHg , 1010.2 hPa
Clouds: Mostly cloudy
Visibility: 10 miles , 16 km
Cloud details: Few Clouds 1200 ft
Mostly cloudy 20000 ft
2019/06/25 02:56 KSFO 250256Z 30014KT 10SM FEW012 BKN200 16/11 A2983 RMK AO2 SLP100 T01610111 55001
KE16 - San Martin, California, USA
Distance from station: ESE 27mi, 43km
Updated: Thu, 30-May-2019 12:30pm PDT
NOT Current

 Wind from SE
Wind: SE 6 mph , 9 km/h
Temperature: 64°F , 18°C
Dew Point: 52°F , 11°C
Humidity: 64%
Barometer: 29.96 inHg , 1014.6 hPa
2019/05/30 19:30 KE16 301930Z AUTO 13005KT 18/11 A2996 RMK AO2 PWINO PNO
 
KWVI - Watsonville, California, USA
Distance from station: SSE 27mi, 44km
Updated: Mon, 24-Jun-2019 7:53pm PDT
Overcast
Overcast
 Wind from SW
Wind: SW 6 mph , 9 km/h
Temperature: 59°F , 15°C
Dew Point: 54°F , 12°C
Humidity: 82%
Barometer: 29.89 inHg , 1012.2 hPa
Clouds: Overcast
Visibility: 8 miles , 13 km
Cloud details: Overcast 1100 ft
2019/06/25 02:53 KWVI 250253Z AUTO 23005KT 8SM OVC011 15/12 A2989 RMK AO2 SLP119 T01500117 55003 $
KHAF - Half Moon Bay, California, USA
Distance from station: WNW 31mi, 50km
Updated: Mon, 24-Jun-2019 8:20pm PDT
Mist, Overcast
Mist, Overcast
 Wind from SE
Wind: SE 5 mph , 7 km/h
Temperature: 55°F , 13°C
Dew Point: 54°F , 12°C
Humidity: 94%
Barometer: 29.87 inHg , 1011.5 hPa
Summary: Mist
Clouds: Overcast
Visibility: 4 miles , 6 km
Cloud details: Overcast 400 ft
2019/06/25 03:20 KHAF 250320Z AUTO 14004KT 4SM BR OVC004 13/12 A2987 RMK AO2
 
KHWD - Hayward, California, USA
Distance from station: N 28mi, 44km
Updated: Mon, 24-Jun-2019 7:54pm PDT
Clear
Clear
 Wind from NW
Wind: NW 9 mph , 15 km/h
Temperature: 63°F , 17°C
Dew Point: 54°F , 12°C
Humidity: 73%
Barometer: 29.83 inHg , 1010.2 hPa
Clouds: Clear
Visibility: 8 miles , 13 km
2019/06/25 02:54 KHWD 250254Z 31008KT 8SM CLR 17/12 A2983 RMK AO2 SLP111 T01720117 55001
KLVK - Livermore, California, USA
Distance from station: NNE 31mi, 51km
Updated: Mon, 24-Jun-2019 7:53pm PDT
Clear
Clear
 Wind from W
Wind: W 9 mph , 15 km/h
Temperature: 72°F , 22°C
Dew Point: 50°F , 10°C
Humidity: 47%
Barometer: 29.80 inHg , 1009.1 hPa
Clouds: Clear
Visibility: 10 miles , 16 km
2019/06/25 02:53 KLVK 250253Z 27008KT 10SM CLR 22/10 A2980 RMK AO2 SLP087 T02220100 55000